Strona główna
METAR-TAF:

METAR-TAF

Lotnisko :

Twin County Airport

Galax / Hillsville, Wirginia, Stany Zjednoczone

Szerokość geograficzna: 36-46N, Długość geograficzna: 080-49W, wysokość: 834 m

Aktualna obserwacja pogody

Raport powstał 27 minut temu, godzina 10:15 UTC
Cisza
Temperatura 20°C
Wilgotność 100%
Ciśnienie 1019 hPa
Zachmurzenie całkowite na wysokości 100 ft
mgła

METAR: KHLX 211015Z AUTO 00000KT M1/4SM FG OVC001 20/20 A3009 RMK AO2 T02010195

czas: 06:42 (10:42 UTC)


TAF: brakujący

Obserwacja i prognoza pogody dla ponad 4000 lotnisk (raport METAR i TAF).

Dostępne stacje oznaczono żółtymi i czerwonymi punktami na mapie.

Najedź kursorem aby zobaczyć nazwę stacji.

Kliknij aby zobaczyć obserwacje i prognozy pogody.

Aby zmienić mapę: kliknij na zielony przycisk z czarnym krzyżykiem, aby powiększyć; na zielony przycisk z myślnikiem, aby pomniejszyć; na zielone strzałki, aby przejść do map sąsiednich.


METAR-TAF: